createdAt,value
2019-02-15T00:00:50.707Z,47.70
2019-02-15T00:05:57.842Z,47.82
2019-02-15T00:11:04.783Z,47.87
2019-02-15T00:16:11.360Z,47.76
2019-02-15T00:21:19.600Z,48.04
2019-02-15T00:26:25.557Z,48.20
2019-02-15T00:31:31.963Z,48.40
2019-02-15T00:36:39.357Z,48.55
2019-02-15T00:41:44.911Z,48.83
2019-02-15T00:47:01.935Z,49.07
2019-02-15T00:52:09.744Z,49.14
2019-02-15T00:57:20.511Z,48.98
2019-02-15T01:02:40.030Z,48.96
2019-02-15T01:07:50.337Z,49.01
2019-02-15T01:12:57.878Z,48.47
2019-02-15T01:18:03.656Z,49.58
2019-02-15T01:23:10.387Z,49.68
2019-02-15T01:28:17.695Z,49.63
2019-02-15T01:33:38.800Z,49.58
2019-02-15T01:38:48.963Z,49.21
2019-02-15T01:43:59.191Z,49.03
2019-02-15T01:49:05.401Z,48.60
2019-02-15T01:54:11.277Z,48.32
2019-02-15T01:59:17.049Z,48.12
2019-02-15T02:04:23.209Z,47.95
2019-02-15T02:09:28.919Z,47.65
2019-02-15T02:14:35.089Z,47.56
2019-02-15T02:19:42.323Z,46.89
2019-02-15T02:24:48.078Z,47.39
2019-02-15T02:29:54.148Z,47.59
2019-02-15T02:35:01.849Z,47.88
2019-02-15T02:40:09.627Z,47.84
2019-02-15T02:45:16.261Z,48.33
2019-02-15T02:50:22.787Z,48.32
2019-02-15T02:55:28.811Z,48.41
2019-02-15T03:00:36.261Z,48.47
2019-02-15T03:05:42.641Z,48.22
2019-02-15T03:10:48.775Z,48.39
2019-02-15T03:15:54.417Z,48.70
2019-02-15T03:20:59.991Z,49.50
2019-02-15T03:26:06.217Z,49.56
2019-02-15T03:31:12.065Z,49.35
2019-02-15T03:36:19.820Z,49.20
2019-02-15T03:41:28.016Z,49.45
2019-02-15T03:46:34.095Z,49.41
2019-02-15T03:51:39.722Z,49.25
2019-02-15T03:56:45.874Z,49.15
2019-02-15T04:01:51.458Z,49.40
2019-02-15T04:06:57.039Z,49.38
2019-02-15T04:12:03.062Z,49.43
2019-02-15T04:17:08.851Z,49.50
2019-02-15T04:22:14.544Z,49.97
2019-02-15T04:27:21.105Z,49.94
2019-02-15T04:32:26.722Z,49.53
2019-02-15T04:37:32.644Z,49.36
2019-02-15T04:42:38.759Z,49.64
2019-02-15T04:47:45.032Z,49.75
2019-02-15T04:52:51.172Z,49.73
2019-02-15T04:57:57.545Z,49.99
2019-02-15T05:03:03.329Z,50.01
2019-02-15T05:08:09.132Z,49.95
2019-02-15T05:13:16.038Z,49.73
2019-02-15T05:18:21.961Z,49.74
2019-02-15T05:23:28.108Z,49.60
2019-02-15T05:28:33.897Z,49.62
2019-02-15T05:33:40.053Z,49.56
2019-02-15T05:38:46.270Z,49.49
2019-02-15T05:43:52.089Z,49.72
2019-02-15T05:48:59.071Z,49.93
2019-02-15T05:54:05.613Z,49.91
2019-02-15T05:59:11.269Z,49.96
2019-02-15T06:04:17.376Z,49.72
2019-02-15T06:09:23.753Z,49.69
2019-02-15T06:14:29.331Z,49.69
2019-02-15T06:19:35.134Z,49.71
2019-02-15T06:24:41.451Z,49.87
2019-02-15T06:29:47.745Z,49.93
2019-02-15T06:34:54.029Z,50.20
2019-02-15T06:40:01.501Z,50.58
2019-02-15T06:45:08.418Z,50.71
2019-02-15T06:50:14.594Z,50.92
2019-02-15T06:55:20.819Z,51.39
2019-02-15T07:00:35.208Z,51.28
2019-02-15T07:05:40.947Z,51.05
2019-02-15T07:10:47.662Z,50.95
2019-02-15T07:15:53.413Z,50.96
2019-02-15T07:20:59.968Z,50.69
2019-02-15T07:26:05.959Z,50.96
2019-02-15T07:31:12.549Z,50.99
2019-02-15T07:36:19.308Z,51.19
2019-02-15T07:41:24.970Z,50.56
2019-02-15T07:46:30.531Z,50.32
2019-02-15T07:51:36.533Z,49.88
2019-02-15T07:56:43.003Z,49.40
2019-02-15T08:01:49.536Z,49.17
2019-02-15T08:06:55.770Z,48.99
2019-02-15T08:12:02.028Z,48.56
2019-02-15T08:17:07.668Z,47.96
2019-02-15T08:22:13.841Z,47.09
2019-02-15T08:27:19.736Z,47.48
2019-02-15T08:32:27.575Z,46.73
2019-02-15T08:37:34.761Z,46.63
2019-02-15T08:42:41.104Z,45.52
2019-02-15T08:47:46.999Z,44.88
2019-02-15T08:52:55.162Z,44.16
2019-02-15T08:58:01.292Z,42.43
2019-02-15T09:03:08.213Z,43.07
2019-02-15T09:08:14.479Z,42.99
2019-02-15T09:13:22.093Z,41.81
2019-02-15T09:18:27.786Z,40.37
2019-02-15T09:23:33.809Z,40.08
2019-02-15T09:28:44.719Z,40.04
2019-02-15T09:33:52.912Z,39.45
2019-02-15T09:39:00.328Z,39.20
2019-02-15T09:44:06.788Z,38.45
2019-02-15T09:49:12.399Z,38.83
2019-02-15T09:54:19.270Z,39.65
2019-02-15T09:59:25.243Z,39.34
2019-02-15T10:04:31.861Z,38.49
2019-02-15T10:09:40.984Z,38.15
2019-02-15T10:14:47.732Z,37.30
2019-02-15T10:19:53.785Z,36.51
2019-02-15T10:24:59.929Z,35.65
2019-02-15T10:30:11.321Z,34.95
2019-02-15T10:35:18.237Z,35.52
2019-02-15T10:40:25.067Z,35.06
2019-02-15T10:45:32.052Z,34.81
2019-02-15T10:50:40.068Z,35.30
2019-02-15T10:55:46.750Z,32.55
2019-02-15T11:00:53.109Z,31.08
2019-02-15T11:05:59.741Z,31.21
2019-02-15T11:11:05.600Z,30.54
2019-02-15T11:16:14.847Z,30.18
2019-02-15T11:21:21.235Z,31.08
2019-02-15T11:26:28.094Z,29.74
2019-02-15T11:31:35.986Z,29.81
2019-02-15T11:36:43.134Z,29.64
2019-02-15T11:41:49.145Z,27.96
2019-02-15T11:46:56.903Z,27.46
2019-02-15T11:52:03.519Z,27.68
2019-02-15T11:57:11.899Z,26.33
2019-02-15T12:02:19.321Z,26.29
2019-02-15T12:07:27.081Z,26.74
2019-02-15T12:12:33.142Z,26.76
2019-02-15T12:17:40.643Z,26.47
2019-02-15T12:22:47.012Z,25.57
2019-02-15T12:27:54.924Z,25.67
2019-02-15T12:33:00.868Z,24.72
2019-02-15T12:38:07.776Z,24.78
2019-02-15T12:43:13.461Z,24.05
2019-02-15T12:48:23.631Z,25.08
2019-02-15T12:53:31.254Z,24.05
2019-02-15T12:58:38.892Z,24.04
2019-02-15T13:03:48.785Z,22.79
2019-02-15T13:08:56.280Z,21.24
2019-02-15T13:14:05.748Z,22.23
2019-02-15T13:19:13.144Z,22.44
2019-02-15T13:24:21.922Z,22.97
2019-02-15T13:29:28.196Z,21.16
2019-02-15T13:34:34.521Z,20.30
2019-02-15T13:39:45.137Z,19.49
2019-02-15T13:44:55.592Z,20.09
2019-02-15T13:50:01.731Z,19.93
2019-02-15T13:55:10.243Z,19.30
2019-02-15T14:00:17.551Z,19.86
2019-02-15T14:05:24.127Z,21.23
2019-02-15T14:10:31.994Z,20.89
2019-02-15T14:15:39.254Z,21.51
2019-02-15T14:20:45.901Z,20.17
2019-02-15T14:25:53.968Z,19.63
2019-02-15T14:31:03.402Z,18.06
2019-02-15T14:36:10.158Z,19.11
2019-02-15T14:41:17.539Z,17.00
2019-02-15T14:46:25.903Z,17.17
2019-02-15T14:51:32.842Z,17.78
2019-02-15T14:56:39.308Z,17.76
2019-02-15T15:01:47.935Z,15.69
2019-02-15T15:06:54.590Z,17.05
2019-02-15T15:12:02.176Z,15.10
2019-02-15T15:17:10.093Z,16.56
2019-02-15T15:22:17.597Z,17.84
2019-02-15T15:27:24.048Z,17.32
2019-02-15T15:32:32.693Z,16.94
2019-02-15T15:37:38.992Z,16.75
2019-02-15T15:42:46.702Z,17.08
2019-02-15T15:47:55.456Z,16.46
2019-02-15T15:53:01.450Z,15.93
2019-02-15T15:58:08.241Z,16.18
2019-02-15T16:03:14.259Z,17.30
2019-02-15T16:08:20.047Z,16.68
2019-02-15T16:13:27.463Z,17.24
2019-02-15T16:18:38.622Z,17.98
2019-02-15T16:23:46.659Z,18.40
2019-02-15T16:28:53.583Z,21.50
2019-02-15T16:34:01.903Z,22.68
2019-02-15T16:39:14.403Z,23.87
2019-02-15T16:44:22.765Z,23.66
2019-02-15T16:49:29.378Z,24.04
2019-02-15T16:54:38.572Z,24.37
2019-02-15T16:59:44.947Z,25.53
2019-02-15T17:04:52.358Z,25.12
2019-02-15T17:09:58.199Z,26.04
2019-02-15T17:15:04.849Z,25.91
2019-02-15T17:20:12.221Z,25.98
2019-02-15T17:25:18.164Z,26.57
2019-02-15T17:30:24.784Z,26.92
2019-02-15T17:35:30.800Z,27.25
2019-02-15T17:40:36.957Z,27.41
2019-02-15T17:45:42.973Z,28.04
2019-02-15T17:50:48.908Z,28.44
2019-02-15T17:55:55.846Z,28.52
2019-02-15T18:01:02.382Z,29.39
2019-02-15T18:06:09.860Z,28.82
2019-02-15T18:11:16.697Z,29.16
2019-02-15T18:16:24.092Z,29.37
2019-02-15T18:21:30.151Z,29.69
2019-02-15T18:26:36.093Z,30.13
2019-02-15T18:31:42.223Z,30.55
2019-02-15T18:36:48.104Z,31.02
2019-02-15T18:41:54.144Z,31.07
2019-02-15T18:47:00.674Z,31.29
2019-02-15T18:52:08.712Z,31.59
2019-02-15T18:57:14.931Z,32.03
2019-02-15T19:02:20.915Z,32.20
2019-02-15T19:07:27.150Z,32.47
2019-02-15T19:12:33.046Z,32.82
2019-02-15T19:17:40.408Z,32.64
2019-02-15T19:22:46.551Z,32.94
2019-02-15T19:27:52.475Z,33.71
2019-02-15T19:32:58.604Z,34.18
2019-02-15T19:38:04.876Z,34.27
2019-02-15T19:43:12.962Z,34.72
2019-02-15T19:48:19.932Z,34.56
2019-02-15T19:53:25.667Z,35.07
2019-02-15T19:58:32.376Z,35.38
2019-02-15T20:03:38.127Z,35.65
2019-02-15T20:08:45.503Z,35.78
2019-02-15T20:13:51.737Z,36.16
2019-02-15T20:18:57.767Z,36.52
2019-02-15T20:24:03.875Z,36.61
2019-02-15T20:29:09.489Z,36.91
2019-02-15T20:34:16.435Z,37.34
2019-02-15T20:39:22.256Z,37.68
2019-02-15T20:44:28.937Z,38.07
2019-02-15T20:49:34.578Z,37.60
2019-02-15T20:54:40.367Z,37.56
2019-02-15T20:59:46.588Z,38.22
2019-02-15T21:04:52.157Z,38.57
2019-02-15T21:09:58.449Z,38.94
2019-02-15T21:15:06.321Z,38.78
2019-02-15T21:20:15.850Z,38.70
2019-02-15T21:25:21.482Z,38.99
2019-02-15T21:30:27.317Z,39.55
2019-02-15T21:35:33.093Z,39.82
2019-02-15T21:40:39.606Z,40.10
2019-02-15T21:45:45.712Z,40.28
2019-02-15T21:50:51.975Z,40.18
2019-02-15T21:55:57.695Z,40.64
2019-02-15T22:01:03.647Z,40.65
2019-02-15T22:06:09.407Z,40.74
2019-02-15T22:11:15.141Z,40.97
2019-02-15T22:16:21.291Z,41.48
2019-02-15T22:21:27.403Z,41.98
2019-02-15T22:26:33.427Z,41.84
2019-02-15T22:31:38.984Z,41.93
2019-02-15T22:36:46.206Z,42.09
2019-02-15T22:41:51.781Z,42.53
2019-02-15T22:46:59.039Z,42.53
2019-02-15T22:52:05.009Z,42.79
2019-02-15T22:57:10.583Z,43.04
2019-02-15T23:02:16.738Z,42.85
2019-02-15T23:07:22.746Z,43.42
2019-02-15T23:12:28.658Z,42.35
2019-02-15T23:17:35.304Z,42.76
2019-02-15T23:22:41.785Z,43.20
2019-02-15T23:27:48.029Z,43.37
2019-02-15T23:32:55.595Z,43.59
2019-02-15T23:38:01.221Z,44.44
2019-02-15T23:43:06.928Z,44.48
2019-02-15T23:48:14.208Z,45.21
2019-02-15T23:53:20.071Z,45.04
2019-02-15T23:58:25.897Z,45.08
